Time;durP1;ratioP1;P1;durP2;ratioP2;P2;SDS_P1;SDS_P2;PMS_P1;PMS_P2;Temp;Humidity;BMP_temperature;BMP_pressure;BME280_temperature;BME280_humidity;BME280_pressure;Samples;Min_cycle;Max_cycle;Signal;HPM_P1;HPM_P2
2024/04/07 00:02:03;;;;;;;1.93;0.70;;;17.30;73.10;;;;;;4961683;29;20469;-85
2024/04/07 00:04:28;;;;;;;0.70;0.70;;;17.20;74.30;;;;;;4961500;29;20442;-86
2024/04/07 00:06:55;;;;;;;0.70;0.50;;;17.20;74.80;;;;;;4961146;29;20914;-86
2024/04/07 00:09:21;;;;;;;0.50;0.50;;;17.10;75.00;;;;;;4961543;29;20219;-86
2024/04/07 00:11:48;;;;;;;0.67;0.67;;;17.10;75.50;;;;;;4961388;29;20473;-86
2024/04/07 00:14:15;;;;;;;0.80;0.60;;;17.00;74.60;;;;;;4960892;29;20446;-86
2024/04/07 00:16:42;;;;;;;0.80;0.60;;;17.00;75.60;;;;;;4960986;29;20847;-86
2024/04/07 00:19:08;;;;;;;2.30;0.83;;;16.90;75.90;;;;;;4960743;29;20469;-86
2024/04/07 00:21:35;;;;;;;0.60;0.50;;;16.90;74.60;;;;;;4961207;29;20438;-86
2024/04/07 00:24:01;;;;;;;0.90;0.80;;;16.90;73.90;;;;;;4960549;29;20588;-86
2024/04/07 00:26:28;;;;;;;0.87;0.87;;;16.90;74.00;;;;;;4960989;29;20849;-86
2024/04/07 00:28:54;;;;;;;0.87;0.60;;;16.90;73.50;;;;;;4960110;29;20735;-86
2024/04/07 00:31:22;;;;;;;0.80;0.70;;;16.90;74.10;;;;;;4960612;29;20438;-86
2024/04/07 00:33:47;;;;;;;0.77;0.70;;;17.00;73.70;;;;;;4960043;29;20202;-86
2024/04/07 00:36:14;;;;;;;0.60;0.50;;;16.90;74.60;;;;;;4960788;29;20834;-85
2024/04/07 00:38:40;;;;;;;1.20;1.17;;;17.00;74.20;;;;;;4960202;29;20219;-86
2024/04/07 00:41:08;;;;;;;1.07;0.63;;;16.90;74.50;;;;;;4960790;29;20454;-86
2024/04/07 00:43:40;;;;;;;0.97;0.87;;;16.90;73.10;;;;;;4959928;29;20199;-85
2024/04/07 00:46:09;;;;;;;1.03;0.90;;;16.90;73.80;;;;;;4960433;29;20485;-85
2024/04/07 00:48:36;;;;;;;0.70;0.70;;;16.90;72.90;;;;;;4962974;29;20839;-86
2024/04/07 00:51:04;;;;;;;1.13;0.60;;;16.90;73.40;;;;;;4963101;28;20435;-86
2024/04/07 00:53:31;;;;;;;0.60;0.60;;;17.00;73.20;;;;;;4961895;29;20473;-86
2024/04/07 00:55:58;;;;;;;0.50;0.50;;;16.90;72.70;;;;;;4963171;29;20454;-85
2024/04/07 00:58:23;;;;;;;0.60;0.60;;;16.90;72.40;;;;;;4968514;28;20511;-86
2024/04/07 01:00:50;;;;;;;0.77;0.60;;;16.90;72.50;;;;;;4963788;29;20552;-86
2024/04/07 01:03:16;;;;;;;2.77;0.80;;;16.90;73.20;;;;;;4962796;29;20694;-86
2024/04/07 01:05:45;;;;;;;0.70;0.70;;;16.90;73.20;;;;;;4963496;29;20549;-86
2024/04/07 01:08:13;;;;;;;0.53;0.50;;;16.90;72.70;;;;;;4962556;29;20203;-86
2024/04/07 01:10:40;;;;;;;1.00;0.67;;;16.80;73.10;;;;;;4962062;29;20520;-86
2024/04/07 01:13:07;;;;;;;3.43;0.63;;;16.90;74.20;;;;;;4962111;29;20446;-86
2024/04/07 01:15:33;;;;;;;0.80;0.60;;;16.80;73.50;;;;;;4961160;29;20442;-85
2024/04/07 01:18:00;;;;;;;0.63;0.63;;;16.80;73.80;;;;;;4961962;29;20434;-86
2024/04/07 01:20:27;;;;;;;0.50;0.50;;;16.80;75.00;;;;;;4960757;29;20455;-86
2024/04/07 01:22:54;;;;;;;0.70;0.70;;;16.80;77.10;;;;;;4960954;29;20446;-86
2024/04/07 01:25:23;;;;;;;1.47;0.70;;;16.80;79.20;;;;;;4961055;29;20443;-86
2024/04/07 01:27:52;;;;;;;1.00;0.50;;;16.70;78.00;;;;;;4960867;29;20486;-85
2024/04/07 01:30:19;;;;;;;0.90;0.90;;;16.60;76.70;;;;;;4960645;29;20541;-85
2024/04/07 01:32:45;;;;;;;1.17;0.90;;;16.70;79.20;;;;;;4961610;29;20454;-85
2024/04/07 01:35:12;;;;;;;1.50;0.93;;;16.60;79.40;;;;;;4961208;29;20452;-86
2024/04/07 01:37:37;;;;;;;0.80;0.80;;;16.60;79.50;;;;;;4961365;29;20218;-85
2024/04/07 01:40:08;;;;;;;0.80;0.60;;;16.60;80.10;;;;;;4961483;29;20470;-85
2024/04/07 01:42:36;;;;;;;0.53;0.53;;;16.50;82.10;;;;;;4960910;29;20228;-86
2024/04/07 01:45:03;;;;;;;2.30;0.70;;;16.50;80.90;;;;;;4961419;29;20806;-85
2024/04/07 01:47:29;;;;;;;1.07;0.70;;;16.50;80.70;;;;;;4960347;29;20865;-86
2024/04/07 01:49:56;;;;;;;2.23;0.80;;;16.40;80.90;;;;;;4960672;29;20468;-86
2024/04/07 01:52:22;;;;;;;1.00;0.90;;;16.40;82.10;;;;;;4960913;29;20216;-86
2024/04/07 01:54:49;;;;;;;0.77;0.60;;;16.40;79.80;;;;;;4960543;29;20525;-86
2024/04/07 01:57:14;;;;;;;0.60;0.60;;;16.40;79.70;;;;;;4960574;29;20203;-85
2024/04/07 01:59:42;;;;;;;1.10;0.80;;;16.40;78.60;;;;;;4959923;29;21006;-85
2024/04/07 02:02:08;;;;;;;0.70;0.70;;;16.40;79.60;;;;;;4960747;29;20207;-86
2024/04/07 02:04:35;;;;;;;2.00;0.80;;;16.40;78.90;;;;;;4959808;28;20456;-86
2024/04/07 02:07:01;;;;;;;3.07;0.90;;;16.50;78.30;;;;;;4959188;29;20570;-86
2024/04/07 02:09:28;;;;;;;0.80;0.60;;;16.60;78.50;;;;;;4958604;29;20460;-85
2024/04/07 02:11:54;;;;;;;0.83;0.83;;;16.60;78.50;;;;;;4958920;29;20203;-86
2024/04/07 02:14:21;;;;;;;0.60;0.60;;;16.70;78.20;;;;;;4958863;29;20458;-85
2024/04/07 02:16:48;;;;;;;1.93;0.80;;;16.70;77.70;;;;;;4958804;29;20452;-86
2024/04/07 02:19:15;;;;;;;1.63;0.60;;;16.70;77.90;;;;;;4958591;29;20478;-86
2024/04/07 02:21:42;;;;;;;0.60;0.60;;;16.80;78.00;;;;;;4958253;29;20453;-86
2024/04/07 02:24:09;;;;;;;0.60;0.50;;;16.80;77.90;;;;;;4958806;29;20812;-85
2024/04/07 02:26:35;;;;;;;2.40;0.70;;;16.90;78.20;;;;;;4958095;29;20715;-85
2024/04/07 02:29:03;;;;;;;0.60;0.60;;;16.80;77.90;;;;;;4958434;29;20462;-85
2024/04/07 02:31:30;;;;;;;0.80;0.80;;;16.90;78.20;;;;;;4958491;29;20541;-86
2024/04/07 02:33:58;;;;;;;0.60;0.57;;;16.80;78.60;;;;;;4957787;29;20800;-86
2024/04/07 02:36:24;;;;;;;1.33;0.70;;;16.90;80.30;;;;;;4957485;29;20446;-85
2024/04/07 02:38:51;;;;;;;0.77;0.70;;;16.90;79.30;;;;;;4957315;29;20460;-86
2024/04/07 02:41:17;;;;;;;0.70;0.70;;;16.80;79.10;;;;;;4957354;29;20702;-85
2024/04/07 02:43:43;;;;;;;1.43;0.70;;;16.80;79.10;;;;;;4957471;29;20442;-85
2024/04/07 02:48:55;;;;;;;0.77;0.53;;;16.80;79.50;;;;;;4957518;29;20457;-85
2024/04/07 02:51:23;;;;;;;1.73;0.83;;;16.80;80.10;;;;;;4957766;29;20446;-85
2024/04/07 02:53:50;;;;;;;0.50;0.50;;;16.80;80.60;;;;;;4957728;29;20454;-86
2024/04/07 02:56:15;;;;;;;0.60;0.60;;;16.80;81.10;;;;;;4957696;29;20831;-85
2024/04/07 02:58:42;;;;;;;1.23;0.67;;;16.80;80.70;;;;;;4957706;29;20465;-85
2024/04/07 03:01:09;;;;;;;0.80;0.60;;;16.80;80.10;;;;;;4957263;29;20213;-85
2024/04/07 03:03:35;;;;;;;0.83;0.67;;;16.80;81.00;;;;;;4957288;29;20460;-85
2024/04/07 03:06:04;;;;;;;0.80;0.70;;;16.80;82.10;;;;;;4957480;29;20438;-86
2024/04/07 03:08:31;;;;;;;0.80;0.73;;;16.80;84.10;;;;;;4958253;29;20206;-85
2024/04/07 03:10:58;;;;;;;0.67;0.67;;;16.70;84.20;;;;;;4964835;29;20431;-85
2024/04/07 03:13:24;;;;;;;0.83;0.80;;;16.70;82.50;;;;;;4962971;29;20446;-85
2024/04/07 03:15:50;;;;;;;0.60;0.60;;;16.70;83.70;;;;;;4963863;28;20454;-86
2024/04/07 03:18:16;;;;;;;0.60;0.60;;;16.70;84.60;;;;;;4965664;29;20695;-85
2024/04/07 03:20:43;;;;;;;0.77;0.77;;;16.60;84.40;;;;;;4964550;29;20450;-85
2024/04/07 03:23:09;;;;;;;0.63;0.63;;;16.60;86.60;;;;;;4963689;29;20204;-85
2024/04/07 03:25:37;;;;;;;1.83;0.80;;;16.60;86.50;;;;;;4964295;29;20497;-85
2024/04/07 03:28:03;;;;;;;0.83;0.73;;;16.50;87.80;;;;;;4963497;29;20321;-85
2024/04/07 03:30:30;;;;;;;0.87;0.60;;;16.40;86.50;;;;;;4963578;29;20470;-86
2024/04/07 03:32:56;;;;;;;0.77;0.60;;;16.40;87.20;;;;;;4963085;29;20459;-85
2024/04/07 03:35:23;;;;;;;0.93;0.60;;;16.30;88.90;;;;;;4963444;29;20478;-86
2024/04/07 03:37:50;;;;;;;1.67;0.90;;;16.40;88.40;;;;;;4963224;29;20932;-85
2024/04/07 03:40:17;;;;;;;0.60;0.60;;;16.30;88.00;;;;;;4962879;29;20455;-86
2024/04/07 03:42:45;;;;;;;0.70;0.70;;;16.30;87.90;;;;;;4963398;29;20450;-86
2024/04/07 03:45:12;;;;;;;0.70;0.70;;;16.20;86.60;;;;;;4962160;29;20454;-86
2024/04/07 03:47:40;;;;;;;1.07;0.77;;;16.20;86.60;;;;;;4961945;29;20497;-86
2024/04/07 03:50:08;;;;;;;0.60;0.60;;;16.20;86.80;;;;;;4962657;29;20477;-86
2024/04/07 03:52:35;;;;;;;0.80;0.80;;;16.30;87.90;;;;;;4961991;29;21003;-85
2024/04/07 03:55:00;;;;;;;3.40;0.70;;;16.20;88.40;;;;;;4961428;29;20809;-86
2024/04/07 03:57:27;;;;;;;0.70;0.60;;;16.20;88.30;;;;;;4961881;29;20452;-86
2024/04/07 03:59:54;;;;;;;0.93;0.80;;;16.20;88.20;;;;;;4961341;29;20237;-85
2024/04/07 04:02:21;;;;;;;0.93;0.70;;;16.10;88.00;;;;;;4961962;29;20461;-86
2024/04/07 04:04:55;;;;;;;1.60;0.90;;;16.10;87.60;;;;;;4961823;29;20817;-86
2024/04/07 04:07:22;;;;;;;0.80;0.80;;;16.10;86.80;;;;;;4960603;29;20458;-86
2024/04/07 04:09:51;;;;;;;2.60;0.80;;;16.10;87.50;;;;;;4961078;29;20484;-86
2024/04/07 04:12:17;;;;;;;1.27;1.17;;;16.10;87.50;;;;;;4961194;29;20453;-86
2024/04/07 04:14:43;;;;;;;0.80;0.80;;;16.10;87.00;;;;;;4961064;29;20461;-86
2024/04/07 04:17:11;;;;;;;0.87;0.70;;;16.10;86.90;;;;;;4960529;29;20446;-86
2024/04/07 04:19:38;;;;;;;1.80;0.67;;;16.10;86.10;;;;;;4960418;29;20221;-86
2024/04/07 04:22:05;;;;;;;0.70;0.60;;;16.10;86.70;;;;;;4960135;29;20966;-86
2024/04/07 04:24:31;;;;;;;0.90;0.83;;;16.10;86.70;;;;;;4966124;29;20446;-86
2024/04/07 04:26:58;;;;;;;1.63;0.70;;;16.10;86.30;;;;;;4969255;28;20474;-86
2024/04/07 04:29:23;;;;;;;0.70;0.70;;;16.10;86.90;;;;;;4968934;29;20481;-86
2024/04/07 04:31:50;;;;;;;0.77;0.70;;;16.20;86.80;;;;;;4968539;29;20532;-86
2024/04/07 04:34:17;;;;;;;0.90;0.90;;;16.10;86.70;;;;;;4966172;29;20207;-86
2024/04/07 04:36:44;;;;;;;0.53;0.53;;;16.10;86.20;;;;;;4961216;29;20478;-86
2024/04/07 04:39:10;;;;;;;0.83;0.80;;;16.10;87.00;;;;;;4961057;29;20454;-86
2024/04/07 04:41:37;;;;;;;0.70;0.70;;;16.10;86.60;;;;;;4965297;29;20457;-85
2024/04/07 04:44:03;;;;;;;0.50;0.50;;;16.10;86.50;;;;;;4964981;29;20210;-86
2024/04/07 04:46:29;;;;;;;0.57;0.57;;;16.00;86.70;;;;;;4959092;29;20552;-86
2024/04/07 04:48:55;;;;;;;1.43;0.73;;;16.00;87.00;;;;;;4958655;29;20227;-85
2024/04/07 04:51:24;;;;;;;0.67;0.67;;;15.90;87.40;;;;;;4958222;29;20829;-86
2024/04/07 04:53:49;;;;;;;0.90;0.60;;;15.90;87.50;;;;;;4958038;29;20469;-86
2024/04/07 04:56:16;;;;;;;0.93;0.67;;;15.90;87.30;;;;;;4957801;29;20951;-86
2024/04/07 04:58:42;;;;;;;0.83;0.83;;;15.90;86.60;;;;;;4957389;29;20218;-86
2024/04/07 05:01:13;;;;;;;0.60;0.60;;;15.90;86.20;;;;;;4958074;29;20455;-86
2024/04/07 05:03:39;;;;;;;0.80;0.80;;;15.90;85.80;;;;;;4957843;29;20434;-86
2024/04/07 05:06:07;;;;;;;1.00;0.80;;;15.90;85.30;;;;;;4957697;29;20470;-86
2024/04/07 05:08:35;;;;;;;0.77;0.77;;;15.90;85.30;;;;;;4957349;29;20474;-86
2024/04/07 05:11:05;;;;;;;1.00;0.80;;;15.90;85.00;;;;;;4958361;29;20468;-86
2024/04/07 05:13:31;;;;;;;0.80;0.77;;;15.90;84.40;;;;;;4957371;29;20450;-86
2024/04/07 05:15:58;;;;;;;1.33;0.67;;;15.90;84.40;;;;;;4957761;29;20456;-86
2024/04/07 05:18:25;;;;;;;0.63;0.50;;;15.90;84.60;;;;;;4957841;29;20446;-85
2024/04/07 05:20:52;;;;;;;0.60;0.60;;;15.90;84.60;;;;;;4957560;29;20446;-86
2024/04/07 05:23:18;;;;;;;0.80;0.80;;;15.90;85.00;;;;;;4957396;29;20933;-86
2024/04/07 05:25:46;;;;;;;5.17;0.97;;;16.00;83.00;;;;;;4965001;29;20448;-86
2024/04/07 05:28:12;;;;;;;1.33;0.80;;;16.00;83.00;;;;;;4964310;29;20229;-86
2024/04/07 05:30:38;;;;;;;3.13;0.60;;;16.10;83.80;;;;;;4963421;29;20987;-86
2024/04/07 05:33:05;;;;;;;2.20;0.50;;;16.10;89.10;;;;;;4963090;29;20230;-86
2024/04/07 05:35:33;;;;;;;0.67;0.60;;;16.10;90.00;;;;;;4961209;29;20454;-86
2024/04/07 05:37:58;;;;;;;1.53;0.80;;;16.10;88.80;;;;;;4958350;28;20442;-86
2024/04/07 05:40:25;;;;;;;2.13;1.00;;;16.00;88.30;;;;;;4958652;29;20474;-86
2024/04/07 05:42:53;;;;;;;3.33;0.90;;;16.00;90.00;;;;;;4957668;29;20211;-86
2024/04/07 05:45:20;;;;;;;0.83;0.70;;;15.90;90.50;;;;;;4957432;29;20792;-86
2024/04/07 05:47:49;;;;;;;0.60;0.60;;;15.90;90.70;;;;;;4958096;29;20498;-86
2024/04/07 05:50:16;;;;;;;0.70;0.70;;;15.90;90.60;;;;;;4958224;29;20533;-86
2024/04/07 05:52:42;;;;;;;1.80;0.67;;;15.80;91.90;;;;;;4957589;29;20454;-86
2024/04/07 05:55:09;;;;;;;0.93;0.60;;;15.90;91.20;;;;;;4957301;29;20529;-86
2024/04/07 05:57:36;;;;;;;2.00;0.93;;;15.90;90.20;;;;;;4957375;29;20552;-86
2024/04/07 06:00:06;;;;;;;0.60;0.60;;;16.00;90.60;;;;;;4957163;29;20454;-85
2024/04/07 06:02:31;;;;;;;0.97;0.80;;;16.10;90.80;;;;;;4957663;29;20438;-85
2024/04/07 06:04:59;;;;;;;0.60;0.60;;;16.20;91.20;;;;;;4957710;29;20445;-85
2024/04/07 06:07:25;;;;;;;0.60;0.60;;;16.30;91.50;;;;;;4957566;29;20230;-85
2024/04/07 06:09:52;;;;;;;0.70;0.70;;;16.50;92.30;;;;;;4957693;29;20542;-85
2024/04/07 06:12:17;;;;;;;2.30;1.33;;;16.50;90.80;;;;;;4957672;29;20211;-85
2024/04/07 06:14:46;;;;;;;1.10;0.80;;;16.60;90.50;;;;;;4957045;29;20452;-85
2024/04/07 06:17:13;;;;;;;1.57;0.70;;;16.60;90.60;;;;;;4957949;29;20210;-85
2024/04/07 06:19:40;;;;;;;0.70;0.70;;;16.60;91.90;;;;;;4957627;29;20485;-85
2024/04/07 06:22:06;;;;;;;0.60;0.60;;;16.60;92.40;;;;;;4957697;29;20454;-85
2024/04/07 06:24:33;;;;;;;1.00;0.60;;;16.70;92.40;;;;;;4957540;29;20446;-85
2024/04/07 06:26:59;;;;;;;0.70;0.70;;;16.70;91.50;;;;;;4957387;29;20203;-85
2024/04/07 06:29:25;;;;;;;0.63;0.63;;;16.70;92.10;;;;;;4957436;29;20813;-85
2024/04/07 06:31:51;;;;;;;1.23;1.13;;;16.70;93.10;;;;;;4957387;29;20202;-85
2024/04/07 06:34:19;;;;;;;0.80;0.80;;;16.70;93.00;;;;;;4956681;29;20450;-85
2024/04/07 06:36:45;;;;;;;9.53;0.90;;;16.70;92.80;;;;;;4957132;29;20207;-85
2024/04/07 06:39:12;;;;;;;3.07;1.47;;;16.70;93.20;;;;;;4958251;29;20480;-85
2024/04/07 06:41:37;;;;;;;1.90;0.73;;;16.80;92.60;;;;;;4957198;29;20633;-85
2024/04/07 06:44:05;;;;;;;0.70;0.70;;;16.80;92.70;;;;;;4957726;29;20525;-85
2024/04/07 06:46:30;;;;;;;0.70;0.70;;;16.90;92.80;;;;;;4957812;29;20230;-85
2024/04/07 06:48:57;;;;;;;1.17;0.80;;;16.90;93.50;;;;;;4957643;29;20488;-85
2024/04/07 06:51:28;;;;;;;0.90;0.90;;;16.90;92.40;;;;;;4957053;29;20209;-85
2024/04/07 06:53:54;;;;;;;1.33;0.60;;;17.00;92.70;;;;;;4957800;29;20457;-85
2024/04/07 06:56:20;;;;;;;0.77;0.77;;;17.10;91.60;;;;;;4958594;29;20453;-85
2024/04/07 06:58:47;;;;;;;1.40;0.60;;;17.40;91.50;;;;;;4959534;29;20467;-85
2024/04/07 07:01:13;;;;;;;7.40;0.60;;;17.70;93.40;;;;;;4968484;29;20210;-85
2024/04/07 07:03:39;;;;;;;0.80;0.80;;;18.00;93.10;;;;;;4966000;29;20515;-85
2024/04/07 07:06:05;;;;;;;2.67;0.60;;;18.30;91.60;;;;;;4957773;29;20217;-85
2024/04/07 07:08:33;;;;;;;0.60;0.60;;;18.60;91.00;;;;;;4958613;29;20478;-85
2024/04/07 07:10:59;;;;;;;0.90;0.60;;;18.80;92.20;;;;;;4958475;29;20213;-84
2024/04/07 07:13:27;;;;;;;0.60;0.60;;;19.00;91.90;;;;;;4958320;29;20442;-85
2024/04/07 07:15:52;;;;;;;0.67;0.67;;;19.20;92.10;;;;;;4957933;29;20206;-85
2024/04/07 07:18:19;;;;;;;2.80;0.67;;;19.30;92.10;;;;;;4958307;29;20818;-85
2024/04/07 07:20:45;;;;;;;6.47;0.80;;;19.40;93.80;;;;;;4957810;29;20668;-85
2024/04/07 07:23:12;;;;;;;1.60;0.90;;;19.40;95.10;;;;;;4958148;29;20441;-85
2024/04/07 07:25:41;;;;;;;0.77;0.77;;;19.60;95.20;;;;;;4958381;29;20197;-85
2024/04/07 07:28:07;;;;;;;0.93;0.70;;;19.60;91.40;;;;;;4957659;29;20850;-85
2024/04/07 07:30:35;;;;;;;2.30;0.73;;;19.70;89.20;;;;;;4957813;29;20472;-85
2024/04/07 07:33:02;;;;;;;0.80;0.80;;;19.80;91.10;;;;;;4957751;29;20484;-85
2024/04/07 07:35:27;;;;;;;1.30;0.70;;;19.90;90.90;;;;;;4958185;29;20441;-85
2024/04/07 07:37:54;;;;;;;1.00;0.70;;;20.10;94.20;;;;;;4957812;29;20452;-85
2024/04/07 07:40:20;;;;;;;0.53;0.53;;;20.20;92.40;;;;;;4963951;29;20236;-85
2024/04/07 07:42:48;;;;;;;0.90;0.60;;;20.40;90.70;;;;;;4962433;29;20533;-85
2024/04/07 07:45:16;;;;;;;2.70;0.60;;;20.80;84.90;;;;;;4961382;29;20700;-85
2024/04/07 07:47:43;;;;;;;3.90;0.90;;;21.30;80.00;;;;;;4960426;29;20493;-85
2024/04/07 07:50:09;;;;;;;4.17;1.17;;;21.80;79.20;;;;;;4960830;29;20226;-85
2024/04/07 07:52:36;;;;;;;9.10;1.00;;;22.40;77.50;;;;;;4960726;29;20245;-85
2024/04/07 07:55:02;;;;;;;1.17;0.70;;;22.60;77.60;;;;;;4960400;29;20210;-85
2024/04/07 07:57:29;;;;;;;1.58;0.50;;;22.70;79.70;;;;;;4960169;29;20200;-85
2024/04/07 07:59:56;;;;;;;0.95;0.50;;;22.70;83.40;;;;;;4959664;29;20599;-85
2024/04/07 08:02:24;;;;;;;2.97;0.70;;;22.60;83.10;;;;;;4962874;28;20195;-85
2024/04/07 08:04:50;;;;;;;1.45;1.13;;;22.70;84.30;;;;;;4963074;29;20767;-85
2024/04/07 08:07:16;;;;;;;3.53;0.70;;;22.80;84.90;;;;;;4962001;29;20225;-85
2024/04/07 08:09:42;;;;;;;1.02;0.60;;;22.80;82.80;;;;;;4961321;29;20734;-85
2024/04/07 08:12:11;;;;;;;0.90;0.60;;;22.80;82.70;;;;;;4961911;29;20292;-85
2024/04/07 08:14:37;;;;;;;1.42;0.60;;;22.80;80.10;;;;;;4962247;29;20545;-85
2024/04/07 08:17:05;;;;;;;1.45;0.82;;;22.80;78.10;;;;;;4962483;29;20627;-85
2024/04/07 08:19:32;;;;;;;5.57;0.80;;;22.80;78.30;;;;;;4962693;29;20225;-84
2024/04/07 08:21:59;;;;;;;1.10;0.50;;;22.80;78.10;;;;;;4963082;29;20206;-85
2024/04/07 08:24:25;;;;;;;1.70;0.73;;;22.70;76.70;;;;;;4963325;29;20581;-85
2024/04/07 08:26:52;;;;;;;0.70;0.60;;;22.70;77.00;;;;;;4962133;29;20672;-85
2024/04/07 08:29:20;;;;;;;1.00;0.70;;;22.60;76.80;;;;;;4960933;29;20230;-84
2024/04/07 08:31:47;;;;;;;0.70;0.60;;;22.50;75.60;;;;;;4960914;29;20216;-85
2024/04/07 08:34:15;;;;;;;0.70;0.60;;;22.40;75.00;;;;;;4961331;29;20216;-85
2024/04/07 08:36:41;;;;;;;0.63;0.60;;;22.50;76.30;;;;;;4960859;29;20217;-85
2024/04/07 08:39:07;;;;;;;1.45;0.70;;;22.50;76.80;;;;;;4961727;29;20218;-85
2024/04/07 08:41:33;;;;;;;2.83;0.80;;;22.50;77.30;;;;;;4961709;29;20212;-85
2024/04/07 08:44:01;;;;;;;1.50;0.50;;;22.50;80.00;;;;;;4961370;29;20206;-85
2024/04/07 08:46:28;;;;;;;4.43;0.93;;;22.60;79.80;;;;;;4962357;29;20699;-84
2024/04/07 08:48:58;;;;;;;0.80;0.80;;;22.60;78.70;;;;;;4961055;29;20232;-85
2024/04/07 08:51:26;;;;;;;1.40;0.50;;;22.50;80.60;;;;;;4961194;29;20210;-84
2024/04/07 08:53:53;;;;;;;1.60;0.85;;;22.60;84.40;;;;;;4960904;29;20293;-84
2024/04/07 08:56:20;;;;;;;1.88;0.93;;;22.70;79.50;;;;;;4961177;29;20233;-84
2024/04/07 08:58:47;;;;;;;1.48;0.88;;;22.80;78.80;;;;;;4960660;29;20217;-85
2024/04/07 09:01:17;;;;;;;3.42;0.70;;;23.00;78.60;;;;;;4964309;29;20229;-84
2024/04/07 09:03:45;;;;;;;2.13;0.85;;;23.30;77.60;;;;;;4967839;28;20232;-84
2024/04/07 09:06:12;;;;;;;0.52;0.50;;;23.60;76.40;;;;;;4965316;29;20210;-86
2024/04/07 09:08:43;;;;;;;2.55;0.90;;;24.30;74.60;;;;;;4964060;29;20265;-84
2024/04/07 09:11:09;;;;;;;4.90;0.70;;;25.20;70.60;;;;;;4964034;29;20179;-84
2024/04/07 09:13:37;;;;;;;0.60;0.52;;;25.80;70.20;;;;;;4962750;28;20870;-84
2024/04/07 09:16:04;;;;;;;0.52;0.52;;;25.80;69.10;;;;;;4963760;29;20541;-85
2024/04/07 09:18:31;;;;;;;2.15;0.70;;;25.80;69.40;;;;;;4962855;29;20269;-85
2024/04/07 09:20:57;;;;;;;0.70;0.70;;;25.80;69.10;;;;;;4963167;29;20217;-85
2024/04/07 09:23:24;;;;;;;2.33;0.60;;;25.80;69.80;;;;;;4962805;29;20238;-85
2024/04/07 09:25:53;;;;;;;3.60;0.90;;;26.00;70.40;;;;;;4962213;29;20660;-84
2024/04/07 09:28:19;;;;;;;0.75;0.75;;;26.10;70.40;;;;;;4961402;29;20222;-85
2024/04/07 09:30:45;;;;;;;1.80;1.08;;;26.00;70.70;;;;;;4961272;29;20217;-85
2024/04/07 09:33:13;;;;;;;0.68;0.68;;;25.70;71.80;;;;;;4961530;29;20198;-85
2024/04/07 09:35:39;;;;;;;0.60;0.60;;;25.50;73.60;;;;;;4961408;29;20210;-85
2024/04/07 09:38:06;;;;;;;0.60;0.60;;;25.30;74.60;;;;;;4961386;29;20206;-85
2024/04/07 09:40:33;;;;;;;2.58;0.75;;;25.10;74.80;;;;;;4960894;29;20280;-84
2024/04/07 09:43:01;;;;;;;0.90;0.70;;;24.90;76.20;;;;;;4960917;29;20241;-85
2024/04/07 09:45:27;;;;;;;1.05;0.50;;;24.60;76.10;;;;;;4961049;29;20198;-84
2024/04/07 09:47:59;;;;;;;1.52;0.60;;;24.50;75.40;;;;;;4961161;29;20733;-85
2024/04/07 09:50:32;;;;;;;0.73;0.73;;;24.70;73.60;;;;;;4961787;29;20265;-85
2024/04/07 09:53:05;;;;;;;0.80;0.80;;;25.10;74.60;;;;;;4960878;29;20182;-84
2024/04/07 09:55:36;;;;;;;4.20;0.90;;;25.70;73.10;;;;;;4960183;29;20201;-84
2024/04/07 09:58:06;;;;;;;0.63;0.63;;;26.40;73.00;;;;;;4961160;29;20274;-85
2024/04/07 10:00:32;;;;;;;0.70;0.70;;;27.20;72.00;;;;;;4962324;29;20228;-84
2024/04/07 10:03:01;;;;;;;3.55;0.93;;;27.80;69.30;;;;;;4961888;29;20269;-85
2024/04/07 10:05:27;;;;;;;1.02;0.60;;;28.00;68.40;;;;;;4960054;29;20210;-85
2024/04/07 10:07:54;;;;;;;0.73;0.73;;;27.90;68.00;;;;;;4959562;29;20292;-85
2024/04/07 10:10:25;;;;;;;5.35;1.33;;;28.00;66.90;;;;;;4960794;29;20309;-85
2024/04/07 10:12:53;;;;;;;1.40;0.70;;;28.20;66.00;;;;;;4960088;29;20228;-84
2024/04/07 10:15:21;;;;;;;0.80;0.70;;;28.30;64.70;;;;;;4960830;29;20237;-85
2024/04/07 10:17:48;;;;;;;2.00;0.95;;;28.30;65.00;;;;;;4959795;29;20227;-85
2024/04/07 10:20:14;;;;;;;0.55;0.55;;;28.50;66.50;;;;;;4960200;29;20237;-84
2024/04/07 10:22:43;;;;;;;0.70;0.70;;;28.30;63.60;;;;;;4959718;29;20722;-84
2024/04/07 10:25:09;;;;;;;4.05;0.93;;;28.40;65.50;;;;;;4958518;28;20211;-83
2024/04/07 10:27:43;;;;;;;2.72;0.80;;;28.40;64.20;;;;;;4959085;29;20591;-84
2024/04/07 10:30:10;;;;;;;1.63;0.70;;;28.50;62.70;;;;;;4959211;29;20219;-84
2024/04/07 10:32:40;;;;;;;1.15;0.50;;;28.70;63.60;;;;;;4959112;29;20631;-84
2024/04/07 10:35:08;;;;;;;1.95;0.80;;;29.00;60.10;;;;;;4958922;29;20214;-84
2024/04/07 10:37:36;;;;;;;1.80;0.70;;;29.00;60.00;;;;;;4959015;29;20231;-85
2024/04/07 10:40:03;;;;;;;0.88;0.73;;;28.90;61.70;;;;;;4958522;29;20696;-84
2024/04/07 10:42:30;;;;;;;1.20;0.80;;;28.90;61.80;;;;;;4959006;29;20177;-84
2024/04/07 10:44:56;;;;;;;1.85;0.70;;;28.80;61.80;;;;;;4958752;29;20212;-84
2024/04/07 10:47:23;;;;;;;4.72;1.10;;;28.40;60.70;;;;;;4958854;29;20250;-84
2024/04/07 10:49:50;;;;;;;0.77;0.70;;;28.10;61.70;;;;;;4958077;29;20243;-84
2024/04/07 10:52:19;;;;;;;0.90;0.80;;;27.90;61.00;;;;;;4969836;29;20223;-84
2024/04/07 10:54:45;;;;;;;1.63;0.70;;;28.10;63.20;;;;;;4961962;29;20236;-84
2024/04/07 10:57:13;;;;;;;5.32;0.60;;;28.20;60.40;;;;;;4960969;29;20212;-85
2024/04/07 10:59:38;;;;;;;1.02;0.80;;;28.50;60.50;;;;;;4961732;29;20228;-85
2024/04/07 11:02:07;;;;;;;0.88;0.88;;;28.60;59.60;;;;;;4961826;29;20696;-85
2024/04/07 11:04:33;;;;;;;1.33;0.70;;;28.50;60.70;;;;;;4961673;29;20215;-84
2024/04/07 11:07:03;;;;;;;0.50;0.50;;;28.60;61.40;;;;;;4962334;29;20230;-84
2024/04/07 11:09:29;;;;;;;1.30;0.80;;;28.60;59.60;;;;;;4961006;29;20236;-85
2024/04/07 11:11:56;;;;;;;1.48;0.60;;;28.30;59.00;;;;;;4960509;29;20209;-85
2024/04/07 11:14:25;;;;;;;3.60;0.70;;;27.90;61.30;;;;;;4960637;29;20262;-84
2024/04/07 11:16:54;;;;;;;5.25;1.00;;;27.50;63.80;;;;;;4959975;29;20673;-84
2024/04/07 11:19:23;;;;;;;1.15;0.57;;;27.20;63.00;;;;;;4960453;29;20221;-84
2024/04/07 11:21:50;;;;;;;3.33;1.00;;;27.10;61.50;;;;;;4959740;29;20206;-84
2024/04/07 11:24:18;;;;;;;0.73;0.70;;;27.00;64.50;;;;;;4960217;29;20206;-85
2024/04/07 11:26:45;;;;;;;1.30;0.70;;;26.90;64.10;;;;;;4958656;29;20202;-84
2024/04/07 11:29:11;;;;;;;0.80;0.80;;;26.70;62.90;;;;;;4958599;29;20230;-84
2024/04/07 11:31:38;;;;;;;1.15;0.70;;;26.70;65.20;;;;;;4958529;29;20220;-84
2024/04/07 11:34:04;;;;;;;2.88;0.90;;;26.60;63.70;;;;;;4959335;29;20206;-84
2024/04/07 11:36:31;;;;;;;4.43;1.63;;;26.40;64.00;;;;;;4960202;28;20201;-84
2024/04/07 11:38:57;;;;;;;1.95;1.10;;;26.20;64.90;;;;;;4963571;29;20226;-85
2024/04/07 11:41:25;;;;;;;5.55;0.90;;;26.20;63.00;;;;;;4963042;29;20202;-84
2024/04/07 11:43:52;;;;;;;2.67;0.60;;;26.00;64.50;;;;;;4963129;29;20224;-84
2024/04/07 11:46:19;;;;;;;1.13;0.63;;;26.00;66.30;;;;;;4962693;29;20240;-84
2024/04/07 11:48:45;;;;;;;3.67;0.90;;;26.00;63.20;;;;;;4962202;29;20257;-84
2024/04/07 11:51:12;;;;;;;0.70;0.70;;;25.90;65.40;;;;;;4962131;29;20206;-84
2024/04/07 11:53:38;;;;;;;0.70;0.70;;;25.90;62.80;;;;;;4961888;29;20293;-84
2024/04/07 11:56:05;;;;;;;3.72;0.75;;;25.90;63.00;;;;;;4962403;29;20226;-84
2024/04/07 11:58:32;;;;;;;5.25;0.75;;;25.90;64.20;;;;;;4961812;29;20209;-84
2024/04/07 12:00:59;;;;;;;0.75;0.68;;;25.80;63.80;;;;;;4961394;29;20690;-84
2024/04/07 12:03:25;;;;;;;1.50;0.70;;;25.70;62.30;;;;;;4961251;29;20211;-84
2024/04/07 12:05:51;;;;;;;0.98;0.68;;;25.40;62.50;;;;;;4961872;29;20202;-85
2024/04/07 12:08:18;;;;;;;3.92;0.60;;;25.30;63.10;;;;;;4961210;29;20222;-85
2024/04/07 12:10:45;;;;;;;1.02;0.70;;;25.30;62.80;;;;;;4961222;29;20208;-84
2024/04/07 12:13:11;;;;;;;1.30;0.70;;;25.20;63.60;;;;;;4961792;29;20213;-84
2024/04/07 12:15:40;;;;;;;1.23;0.60;;;25.20;64.10;;;;;;4961222;29;20206;-84
2024/04/07 12:18:05;;;;;;;0.95;0.77;;;25.20;63.00;;;;;;4961361;29;20206;-84
2024/04/07 12:20:32;;;;;;;3.60;0.70;;;25.10;63.30;;;;;;4961268;29;20221;-84
2024/04/07 12:22:58;;;;;;;1.67;0.80;;;25.10;65.30;;;;;;4960569;29;20194;-84
2024/04/07 12:25:27;;;;;;;1.02;0.60;;;25.20;64.80;;;;;;4960921;29;20201;-84
2024/04/07 12:27:53;;;;;;;0.82;0.60;;;25.30;64.90;;;;;;4960872;29;20213;-84
2024/04/07 12:30:19;;;;;;;0.60;0.60;;;25.20;63.10;;;;;;4960743;29;20230;-84
2024/04/07 12:32:47;;;;;;;3.55;0.65;;;25.20;64.40;;;;;;4961120;29;20237;-84
2024/04/07 12:35:13;;;;;;;0.80;0.80;;;25.10;63.00;;;;;;4960779;29;20194;-83
2024/04/07 12:37:39;;;;;;;0.70;0.68;;;25.00;63.50;;;;;;4960945;29;20201;-86
2024/04/07 12:40:07;;;;;;;1.08;0.60;;;25.00;62.50;;;;;;4960920;29;20692;-84
2024/04/07 12:42:33;;;;;;;3.70;1.17;;;25.00;62.50;;;;;;4969196;29;20664;-84
2024/04/07 12:45:03;;;;;;;3.70;0.85;;;24.80;61.30;;;;;;4964463;29;20208;-84
2024/04/07 12:47:28;;;;;;;2.15;0.60;;;24.70;61.90;;;;;;4963209;28;20242;-84
2024/04/07 12:49:57;;;;;;;2.35;0.60;;;24.70;62.80;;;;;;4963099;29;20664;-84